Terminal Aerodrome Forecast
Issued by NWS

Home | Current Version | Previous Version | Text Only | Print | Product List | Glossary On
Versions: 1 2 3 4 5 6 7 8 9 10 11 12 13 14 15 16 17
000
FTAK31 PAJN 180500
TAFAPG
TAF
PAPG 180538Z 1806/1906 VRB05KT P6SM SCT100 BKN150
     FM181600 VRB05KT P6SM VCSH BKN050 OVC100
     FM181800 11008KT P6SM -RA BKN035 OVC060
     FM182200 11010G16KT 5SM -RA BR BKN030 OVC040
      AMD LTD TO CLD VIS AND WIND 1806/1815=

USA.gov is the U.S. government's official web portal to all federal, state and local government web resources and services.